Time;durP1;ratioP1;P1;durP2;ratioP2;P2;SDS_P1;SDS_P2;PMS_P1;PMS_P2;Temp;Humidity;BMP_temperature;BMP_pressure;BME280_temperature;BME280_humidity;BME280_pressure;Samples;Min_cycle;Max_cycle;Signal;HPM_P1;HPM_P2
2022/05/28 00:01:23;;;;;;;13.57;5.83;;;9.50;22.50;9.60;94497.00;;;;7389653;19;20580;-78
2022/05/28 00:03:59;;;;;;;11.70;5.17;;;9.40;45.50;9.50;94520.00;;;;7389702;19;20152;-77
2022/05/28 00:06:30;;;;;;;13.00;6.37;;;9.30;97.80;9.50;94496.00;;;;7389410;19;20129;-78
2022/05/28 00:09:05;;;;;;;12.70;6.80;;;9.30;99.90;9.60;94524.00;;;;7392482;19;20531;-79
2022/05/28 00:11:44;;;;;;;16.97;6.43;;;9.20;99.90;9.50;94502.00;;;;7395717;19;20164;-78
2022/05/28 00:14:25;;;;;;;12.73;7.43;;;9.20;99.90;9.50;94503.00;;;;7397148;19;20233;-79
2022/05/28 00:16:52;;;;;;;14.87;6.80;;;9.10;99.90;9.50;94496.00;;;;7396932;19;20140;-77
2022/05/28 00:19:25;;;;;;;14.83;6.50;;;9.10;99.90;9.40;94485.00;;;;7398325;19;20145;-77
2022/05/28 00:21:52;;;;;;;12.07;6.30;;;9.10;99.90;9.30;94476.00;;;;7395174;19;20635;-77
2022/05/28 00:24:19;;;;;;;15.30;5.97;;;9.00;99.90;9.10;94472.00;;;;7394764;19;20200;-78
2022/05/28 00:26:53;;;;;;;13.63;5.80;;;8.90;99.90;9.10;94482.00;;;;7396973;19;20133;-79
2022/05/28 00:29:21;;;;;;;17.33;6.13;;;8.80;99.90;8.90;94477.00;;;;7396877;19;20146;-79
2022/05/28 00:31:48;;;;;;;12.77;5.73;;;8.70;99.90;8.90;94505.00;;;;7392185;19;20141;-78
2022/05/28 00:34:23;;;;;;;16.70;5.63;;;8.60;99.90;8.70;94494.00;;;;7395124;19;20472;-77
2022/05/28 00:36:50;;;;;;;15.03;5.37;;;8.40;99.90;8.60;94465.00;;;;7396072;19;20161;-77
2022/05/28 00:39:17;;;;;;;17.33;5.73;;;8.30;99.90;8.50;94483.00;;;;7396652;19;20125;-77
2022/05/28 00:41:51;;;;;;;12.70;5.37;;;8.20;99.90;8.30;94485.00;;;;7397373;19;20133;-77
2022/05/28 00:44:18;;;;;;;17.00;5.80;;;8.10;99.90;8.30;94474.00;;;;7394258;19;20149;-77
2022/05/28 00:46:46;;;;;;;13.53;5.57;;;8.00;99.90;8.20;94488.00;;;;7396075;19;20471;-77
2022/05/28 00:49:29;;;;;;;13.13;4.67;;;7.90;99.90;8.30;94499.00;;;;7396177;19;20152;-77
2022/05/28 00:52:01;;;;;;;16.33;5.20;;;7.80;99.90;8.10;94467.00;;;;7396522;19;20145;-77
2022/05/28 00:54:44;;;;;;;13.17;4.73;;;7.80;99.90;8.20;94503.00;;;;7397808;19;20463;-77
2022/05/28 00:57:14;;;;;;;17.10;5.33;;;7.70;99.90;8.10;94481.00;;;;7395678;19;20157;-78
2022/05/28 00:59:48;;;;;;;16.67;5.50;;;7.60;99.90;7.90;94477.00;;;;7395767;19;20136;-77
2022/05/28 01:02:25;;;;;;;18.13;5.20;;;7.50;99.90;7.90;94502.00;;;;7399783;19;20137;-77
2022/05/28 01:05:11;;;;;;;9.63;5.10;;;7.50;99.90;7.90;94469.00;;;;7399620;19;20575;-77
2022/05/28 01:08:04;;;;;;;18.07;4.83;;;7.40;99.90;7.80;94492.00;;;;7400093;19;20141;-78
2022/05/28 01:10:52;;;;;;;15.53;5.33;;;7.30;99.90;7.60;94477.00;;;;7399954;19;20142;-77
2022/05/28 01:14:13;;;;;;;12.63;5.40;;;7.20;99.90;7.50;94490.00;;;;7403313;19;20192;-78
2022/05/28 01:17:06;;;;;;;16.40;5.40;;;7.20;99.90;7.70;94489.00;;;;7398741;19;20147;-78
2022/05/28 01:19:53;;;;;;;14.53;5.10;;;7.10;99.90;7.60;94477.00;;;;7398988;19;20136;-78
2022/05/28 01:23:10;;;;;;;13.83;5.50;;;7.10;99.90;7.50;94470.00;;;;7396719;19;20144;-77
2022/05/28 01:25:52;;;;;;;12.80;5.10;;;7.00;99.90;7.50;94481.00;;;;7398389;19;20140;-78
2022/05/28 01:28:38;;;;;;;16.00;5.10;;;7.00;99.90;7.40;94454.00;;;;7398031;19;20144;-78
2022/05/28 01:31:07;;;;;;;12.23;5.27;;;6.90;99.90;7.50;94455.00;;;;7397899;19;20163;-79
2022/05/28 01:33:43;;;;;;;14.03;5.30;;;6.90;99.90;7.40;94464.00;;;;7399042;19;20160;-78
2022/05/28 01:36:14;;;;;;;19.27;5.60;;;6.90;99.90;7.50;94470.00;;;;7400264;19;20598;-78
2022/05/28 01:38:43;;;;;;;10.10;5.47;;;6.90;99.90;7.40;94476.00;;;;7397440;19;20192;-78
2022/05/28 01:41:19;;;;;;;15.33;6.00;;;6.90;99.90;7.40;94445.00;;;;7396822;19;20144;-79
2022/05/28 01:43:49;;;;;;;12.87;5.70;;;6.90;99.90;7.30;94444.00;;;;7397375;19;20498;-79
2022/05/28 01:46:20;;;;;;;12.27;5.57;;;6.90;99.90;7.30;94445.00;;;;7401989;19;20818;-80
2022/05/28 01:48:56;;;;;;;14.23;5.80;;;6.90;99.90;7.20;94461.00;;;;7399604;19;20137;-79
2022/05/28 01:51:35;;;;;;;14.30;5.30;;;6.90;99.90;7.40;94461.00;;;;7398223;19;20136;-78
2022/05/28 01:54:14;;;;;;;16.97;5.33;;;6.90;99.90;7.40;94464.00;;;;7399944;19;20528;-79
2022/05/28 01:56:47;;;;;;;14.10;4.87;;;6.90;99.90;7.30;94460.00;;;;7400029;19;20144;-79
2022/05/28 01:59:34;;;;;;;25.00;5.00;;;6.80;99.90;7.20;94439.00;;;;7398806;19;20611;-78
2022/05/28 02:02:06;;;;;;;12.67;5.20;;;6.80;99.90;7.20;94427.00;;;;7400969;19;20161;-79
2022/05/28 02:04:44;;;;;;;17.87;5.33;;;6.80;99.90;7.10;94446.00;;;;7398595;19;20212;-79
2022/05/28 02:07:11;;;;;;;13.17;4.50;;;6.70;99.90;7.20;94432.00;;;;7399582;19;20137;-80
2022/05/28 02:09:44;;;;;;;19.07;5.17;;;6.70;99.90;7.10;94454.00;;;;7400505;19;20166;-78
2022/05/28 02:13:13;;;;;;;14.93;4.83;;;6.70;99.90;7.00;94436.00;;;;7397382;19;20240;-79
2022/05/28 02:15:48;;;;;;;12.60;4.73;;;6.60;99.90;7.00;94442.00;;;;7403378;19;20142;-80
2022/05/28 02:18:49;;;;;;;13.07;4.70;;;6.60;99.90;7.00;94429.00;;;;7399353;19;20129;-80
2022/05/28 02:21:45;;;;;;;20.83;5.30;;;6.60;99.90;6.90;94404.00;;;;7399924;19;20864;-79
2022/05/28 02:24:28;;;;;;;17.10;5.60;;;6.50;99.90;6.80;94416.00;;;;7398567;19;20143;-80
2022/05/28 02:27:02;;;;;;;13.93;4.77;;;6.50;99.90;6.80;94435.00;;;;7401302;19;20198;-80
2022/05/28 02:29:37;;;;;;;11.50;4.67;;;6.50;99.90;6.80;94427.00;;;;7400938;19;20139;-81
2022/05/28 02:32:24;;;;;;;17.30;4.70;;;6.40;99.90;6.80;94416.00;;;;7405823;19;20507;-82
2022/05/28 02:34:57;;;;;;;13.10;4.20;;;6.40;99.90;6.70;94424.00;;;;7405648;19;20168;-81
2022/05/28 02:37:27;;;;;;;21.77;4.73;;;6.30;99.90;6.80;94433.00;;;;7401746;19;20124;-81
2022/05/28 02:39:54;;;;;;;12.60;4.57;;;6.30;99.90;6.70;94421.00;;;;7403357;19;20168;-79
2022/05/28 02:42:28;;;;;;;16.37;3.90;;;6.30;99.90;6.60;94417.00;;;;7401283;19;20129;-79
2022/05/28 02:44:55;;;;;;;15.23;4.63;;;6.20;99.90;6.60;94424.00;;;;7399427;19;20125;-80
2022/05/28 02:47:22;;;;;;;17.77;5.27;;;6.20;99.90;6.60;94409.00;;;;7400081;19;20121;-79
2022/05/28 02:49:56;;;;;;;12.80;4.30;;;6.20;99.90;6.50;94421.00;;;;7398108;19;20196;-80
2022/05/28 02:52:23;;;;;;;15.27;4.80;;;6.10;99.90;6.50;94419.00;;;;7399225;19;20125;-80
2022/05/28 02:54:50;;;;;;;18.73;4.50;;;6.10;99.90;6.40;94396.00;;;;7397997;19;20165;-80
2022/05/28 02:57:24;;;;;;;12.00;4.00;;;6.00;99.90;6.30;94393.00;;;;7399510;19;20603;-80
2022/05/28 02:59:51;;;;;;;19.33;3.93;;;6.00;99.90;6.30;94425.00;;;;7397411;19;20558;-79
2022/05/28 03:02:18;;;;;;;14.20;3.83;;;6.00;99.90;6.20;94412.00;;;;7398224;19;20145;-79
2022/05/28 03:04:52;;;;;;;22.70;4.27;;;5.90;99.90;6.20;94395.00;;;;7396662;19;20151;-79
2022/05/28 03:07:19;;;;;;;17.07;4.17;;;5.90;99.90;6.20;94401.00;;;;7395888;19;20133;-81
2022/05/28 03:09:46;;;;;;;14.47;3.50;;;5.80;99.90;6.20;94425.00;;;;7397228;19;20149;-79
2022/05/28 03:12:26;;;;;;;12.33;3.77;;;5.80;99.90;6.10;94411.00;;;;7397072;19;20592;-79
2022/05/28 03:14:54;;;;;;;9.20;3.33;;;5.70;99.90;6.10;94421.00;;;;7397597;19;20135;-81
2022/05/28 03:17:27;;;;;;;10.97;3.57;;;5.60;99.90;6.00;94424.00;;;;7397232;19;20150;-79
2022/05/28 03:19:54;;;;;;;18.27;4.50;;;5.60;99.90;6.00;94418.00;;;;7395562;19;20161;-79
2022/05/28 03:22:21;;;;;;;14.60;3.10;;;5.50;99.90;6.00;94428.00;;;;7396463;19;20160;-79
2022/05/28 03:24:55;;;;;;;12.00;3.70;;;5.40;99.90;5.80;94421.00;;;;7396660;19;20142;-78
2022/05/28 03:27:23;;;;;;;13.47;3.73;;;5.40;99.90;5.80;94414.00;;;;7397209;19;20479;-79
2022/05/28 03:29:51;;;;;;;18.40;4.47;;;5.30;99.90;5.70;94428.00;;;;7398950;19;20137;-80
2022/05/28 03:32:24;;;;;;;16.63;3.70;;;5.20;99.90;5.70;94441.00;;;;7397657;19;20144;-79
2022/05/28 03:34:51;;;;;;;18.90;4.13;;;5.20;99.90;5.70;94405.00;;;;7398788;19;20127;-80
2022/05/28 03:37:18;;;;;;;16.87;3.80;;;5.20;99.90;5.70;94415.00;;;;7397458;19;20627;-79
2022/05/28 03:39:52;;;;;;;22.43;4.63;;;5.20;99.90;5.80;94412.00;;;;7397592;19;20184;-79
2022/05/28 03:42:19;;;;;;;13.57;3.67;;;5.20;99.90;5.80;94444.00;;;;7397526;19;20144;-78
2022/05/28 03:44:46;;;;;;;12.07;3.77;;;5.20;1.00;5.70;94420.00;;;;7398821;19;20234;-79
2022/05/28 03:47:20;;;;;;;13.63;4.30;;;5.20;1.00;5.60;94426.00;;;;7405268;19;20627;-79
2022/05/28 03:49:47;;;;;;;13.57;4.50;;;5.20;1.00;5.80;94442.00;;;;7406269;19;20144;-78
2022/05/28 03:52:14;;;;;;;15.37;3.70;;;5.10;1.00;5.60;94452.00;;;;7406659;19;20125;-78
2022/05/28 03:54:49;;;;;;;18.43;4.73;;;5.10;1.00;5.50;94429.00;;;;7410815;19;20145;-78
2022/05/28 03:57:27;;;;;;;14.83;3.97;;;5.00;1.00;5.50;94437.00;;;;7412897;19;20128;-78
2022/05/28 04:00:03;;;;;;;16.23;4.47;;;5.00;1.00;5.50;94455.00;;;;7412387;19;20576;-80
2022/05/28 04:02:31;;;;;;;19.33;3.93;;;4.90;1.00;5.50;94447.00;;;;7411081;19;20716;-78
2022/05/28 04:04:59;;;;;;;12.83;4.07;;;4.90;1.00;5.50;94456.00;;;;7405354;19;20141;-79
2022/05/28 04:07:32;;;;;;;13.50;3.80;;;4.90;1.00;5.40;94436.00;;;;7406298;19;20137;-81
2022/05/28 04:09:59;;;;;;;15.10;3.50;;;4.90;1.00;5.40;94460.00;;;;7406733;19;20132;-80
2022/05/28 04:12:26;;;;;;;13.77;3.30;;;4.90;1.00;5.40;94426.00;;;;7406187;19;20241;-79
2022/05/28 04:15:00;;;;;;;9.23;3.80;;;5.00;1.00;5.30;94446.00;;;;7404340;19;20141;-79
2022/05/28 04:17:27;;;;;;;17.47;3.80;;;4.90;1.00;5.30;94427.00;;;;7401829;19;20137;-80
2022/05/28 04:19:54;;;;;;;9.60;2.90;;;4.90;1.00;5.30;94440.00;;;;7399151;19;20133;-78
2022/05/28 04:22:28;;;;;;;12.57;3.47;;;4.90;1.00;5.40;94461.00;;;;7401163;19;20129;-78
2022/05/28 04:24:55;;;;;;;13.87;3.50;;;4.90;1.00;5.40;94459.00;;;;7399165;19;20137;-79
2022/05/28 04:27:22;;;;;;;10.97;3.20;;;4.90;1.00;5.40;94457.00;;;;7401098;19;20143;-79
2022/05/28 04:30:03;;;;;;;9.97;2.93;;;4.90;1.00;5.40;94449.00;;;;7401416;19;20646;-80
2022/05/28 04:32:30;;;;;;;16.43;3.63;;;4.90;1.00;5.50;94432.00;;;;7401874;19;20602;-78
2022/05/28 04:35:11;;;;;;;12.63;2.83;;;4.90;1.00;5.50;94449.00;;;;7400840;19;20121;-79
2022/05/28 04:37:45;;;;;;;13.97;3.27;;;4.90;1.00;5.40;94426.00;;;;7398624;19;20145;-78
2022/05/28 04:40:19;;;;;;;17.50;3.60;;;4.90;1.00;5.50;94436.00;;;;7402314;19;20208;-81
2022/05/28 04:42:46;;;;;;;10.53;3.40;;;5.00;99.90;5.70;94459.00;;;;7401954;19;20133;-77
2022/05/28 04:45:13;;;;;;;15.50;2.87;;;5.10;99.90;5.90;94454.00;;;;7399189;19;20128;-79
2022/05/28 04:47:47;;;;;;;9.20;2.70;;;5.20;99.90;6.00;94435.00;;;;7400233;19;20133;-81
2022/05/28 04:50:14;;;;;;;9.63;3.10;;;5.30;99.90;6.20;94440.00;;;;7401521;19;20462;-79
2022/05/28 04:52:41;;;;;;;13.37;3.47;;;5.40;99.90;6.20;94446.00;;;;7399803;19;20139;-79
2022/05/28 04:55:15;;;;;;;12.37;3.40;;;5.60;99.90;6.20;94464.00;;;;7402772;19;20133;-80
2022/05/28 04:57:42;;;;;;;10.50;2.67;;;5.70;99.90;6.30;94424.00;;;;7402030;19;20144;-79
2022/05/28 05:00:16;;;;;;;11.17;2.60;;;5.80;99.90;6.30;94477.00;;;;7402733;19;20154;-79
2022/05/28 05:02:50;;;;;;;7.50;2.43;;;5.80;99.90;6.40;94474.00;;;;7404391;19;20128;-79
2022/05/28 05:05:18;;;;;;;14.57;2.87;;;5.90;99.90;6.40;94464.00;;;;7401324;19;20136;-81
2022/05/28 05:07:45;;;;;;;9.63;2.37;;;5.90;99.90;6.50;94456.00;;;;7407042;19;20607;-80
2022/05/28 05:10:19;;;;;;;14.03;2.53;;;5.90;8.60;6.70;94480.00;;;;7403707;19;20144;-80
2022/05/28 05:12:53;;;;;;;12.10;2.73;;;6.00;1.00;6.50;94465.00;;;;7410712;19;20509;-81
2022/05/28 05:15:27;;;;;;;14.07;2.43;;;6.10;1.00;6.50;94461.00;;;;7408554;19;20176;-80
2022/05/28 05:17:54;;;;;;;9.10;2.90;;;6.20;1.00;6.60;94457.00;;;;7415639;19;20145;-80
2022/05/28 05:20:21;;;;;;;8.70;2.60;;;6.20;1.00;6.60;94446.00;;;;7416089;19;20489;-80
2022/05/28 05:22:55;;;;;;;11.67;3.20;;;6.30;1.00;6.80;94473.00;;;;7416000;19;20157;-76
2022/05/28 05:25:24;;;;;;;9.00;2.53;;;6.40;1.00;6.90;94464.00;;;;7420236;19;20192;-81
2022/05/28 05:27:51;;;;;;;8.97;2.13;;;6.40;99.90;6.90;94486.00;;;;7415378;19;20121;-81
2022/05/28 05:30:25;;;;;;;6.30;2.33;;;6.40;99.90;6.80;94473.00;;;;7419785;19;20799;-82
2022/05/28 05:32:55;;;;;;;9.40;2.43;;;6.50;99.90;6.80;94466.00;;;;7430755;19;20168;-80
2022/05/28 05:35:25;;;;;;;6.47;2.50;;;6.50;99.90;7.10;94484.00;;;;7431934;19;20141;-83
2022/05/28 05:38:05;;;;;;;7.87;2.50;;;6.60;99.90;7.40;94484.00;;;;7428444;19;20157;-82
2022/05/28 05:40:37;;;;;;;8.90;2.50;;;6.80;1.00;7.50;94458.00;;;;7427095;19;20147;-80
2022/05/28 05:43:14;;;;;;;8.07;2.37;;;7.00;1.00;7.70;94475.00;;;;7425031;19;20155;-80
2022/05/28 05:45:41;;;;;;;6.30;2.27;;;7.20;99.90;8.00;94484.00;;;;7409747;19;20255;-80
2022/05/28 05:48:09;;;;;;;11.23;2.23;;;7.30;99.90;8.10;94487.00;;;;7399855;19;20129;-81
2022/05/28 05:50:42;;;;;;;12.73;2.73;;;7.50;99.90;8.00;94473.00;;;;7399243;19;20496;-80
2022/05/28 05:53:19;;;;;;;8.13;2.37;;;7.60;1.00;8.20;94463.00;;;;7400921;19;20137;-81
2022/05/28 05:56:34;;;;;;;7.47;2.00;;;7.80;62.90;7.70;94358.00;;;;7412758;19;20137;-82
2022/05/28 05:59:01;;;;;;;8.63;2.03;;;8.00;17.60;8.60;94339.00;;;;7398853;19;20596;-81
2022/05/28 06:01:35;;;;;;;9.20;2.00;;;8.20;1.00;8.50;94456.00;;;;7399634;19;20167;-80
2022/05/28 06:04:03;;;;;;;5.63;2.20;;;8.30;1.00;8.40;94465.00;;;;7401549;19;20671;-79
2022/05/28 06:06:31;;;;;;;9.83;2.40;;;8.30;99.90;8.30;94474.00;;;;7398527;19;20447;-80
2022/05/28 06:09:08;;;;;;;9.83;2.20;;;8.30;99.90;8.50;94481.00;;;;7396481;19;20141;-79
2022/05/28 06:11:42;;;;;;;9.20;1.87;;;8.30;1.00;8.60;94459.00;;;;7396932;19;20198;-80
2022/05/28 06:14:15;;;;;;;10.90;2.27;;;8.50;99.90;9.10;94454.00;;;;7397219;19;20216;-80
2022/05/28 06:16:42;;;;;;;5.40;1.90;;;8.60;99.90;9.60;94489.00;;;;7397871;19;20170;-80
2022/05/28 06:19:09;;;;;;;6.53;2.15;;;9.00;1.00;9.70;94471.00;;;;7396724;19;20480;-81
2022/05/28 06:21:43;;;;;;;6.33;1.90;;;9.20;99.90;9.70;94462.00;;;;7396294;19;20140;-80
2022/05/28 06:24:10;;;;;;;11.52;2.30;;;9.40;49.10;9.40;94469.00;;;;7397009;19;20141;-79
2022/05/28 06:26:37;;;;;;;6.40;1.98;;;9.40;99.90;9.40;94467.00;;;;7396722;19;20168;-78
2022/05/28 06:29:11;;;;;;;7.73;2.13;;;9.50;99.90;9.80;94438.00;;;;7394774;19;20600;-79
2022/05/28 06:31:38;;;;;;;5.33;1.90;;;9.50;99.90;9.50;94468.00;;;;7394428;19;20135;-80
2022/05/28 06:34:05;;;;;;;8.88;2.00;;;9.60;1.00;9.60;94467.00;;;;7399478;19;20137;-80
2022/05/28 06:36:39;;;;;;;10.73;2.25;;;9.60;99.90;10.00;94455.00;;;;7398016;19;20132;-79
2022/05/28 06:39:06;;;;;;;8.73;2.35;;;9.50;1.00;10.10;94475.00;;;;7394867;19;20140;-81
2022/05/28 06:41:33;;;;;;;13.37;2.70;;;9.50;99.90;10.60;94453.00;;;;7396617;19;20142;-79
2022/05/28 06:44:07;;;;;;;8.93;2.17;;;9.80;1.00;10.80;94463.00;;;;7395608;19;20121;-80
2022/05/28 06:46:34;;;;;;;6.95;1.63;;;10.00;99.90;11.20;94468.00;;;;7396127;19;20615;-80
2022/05/28 06:49:04;;;;;;;5.50;1.80;;;10.20;1.00;11.00;94470.00;;;;7395614;19;20141;-80
2022/05/28 06:51:39;;;;;;;7.18;2.05;;;10.30;1.00;11.50;94487.00;;;;7396666;19;20618;-79
2022/05/28 06:54:07;;;;;;;7.38;1.90;;;10.50;1.00;12.10;94477.00;;;;7398244;19;20143;-80
2022/05/28 06:56:34;;;;;;;6.90;1.60;;;10.70;1.00;11.90;94459.00;;;;7394513;19;20196;-81
2022/05/28 06:59:08;;;;;;;5.47;1.70;;;10.80;99.90;12.10;94482.00;;;;7395001;19;20614;-80
2022/05/28 07:01:36;;;;;;;3.20;1.48;;;10.80;99.90;12.40;94474.00;;;;7397146;19;20600;-79
2022/05/28 07:04:04;;;;;;;5.18;1.63;;;11.10;99.90;12.10;94455.00;;;;7404413;19;20133;-81
2022/05/28 07:06:38;;;;;;;6.53;1.42;;;11.10;99.90;12.00;94458.00;;;;7405645;19;20137;-83
2022/05/28 07:09:05;;;;;;;6.47;1.60;;;11.00;99.90;12.10;94468.00;;;;7408353;19;20152;-80
2022/05/28 07:11:33;;;;;;;5.03;1.77;;;11.10;99.90;12.10;94463.00;;;;7411566;19;20149;-83
2022/05/28 07:14:14;;;;;;;7.75;2.10;;;11.20;66.30;12.30;94472.00;;;;7407970;19;20156;-83
2022/05/28 07:16:41;;;;;;;4.95;1.73;;;11.30;99.90;12.40;94440.00;;;;7409430;19;20141;-85
2022/05/28 07:19:15;;;;;;;6.00;1.80;;;11.40;36.30;12.20;94474.00;;;;7410737;19;20163;-79
2022/05/28 07:21:42;;;;;;;3.97;1.58;;;11.40;21.10;12.30;94473.00;;;;7415110;19;20133;-82
2022/05/28 07:24:09;;;;;;;6.03;1.58;;;11.40;37.00;12.30;94463.00;;;;7417609;19;20187;-82
2022/05/28 07:26:43;;;;;;;3.67;1.50;;;11.50;68.90;12.60;94453.00;;;;7420492;19;20140;-82
2022/05/28 07:29:10;;;;;;;5.47;1.83;;;11.80;99.90;12.70;94458.00;;;;7414682;19;20132;-81
2022/05/28 07:31:37;;;;;;;6.18;1.90;;;12.00;1.00;12.30;94454.00;;;;7419818;19;20132;-82
2022/05/28 07:34:15;;;;;;;5.65;1.52;;;11.90;1.00;12.10;94447.00;;;;7418806;19;20125;-81
2022/05/28 07:36:42;;;;;;;8.18;1.88;;;11.90;1.00;12.40;94460.00;;;;7420669;19;20132;-83
2022/05/28 07:39:09;;;;;;;11.82;2.15;;;12.10;1.00;12.40;94449.00;;;;7415638;19;20136;-82
2022/05/28 07:41:43;;;;;;;6.20;1.90;;;12.10;1.00;12.90;94474.00;;;;7418134;19;20125;-81
2022/05/28 07:44:11;;;;;;;4.90;1.60;;;12.40;1.00;13.30;94452.00;;;;7423785;19;20129;-83
2022/05/28 07:46:38;;;;;;;4.97;1.77;;;12.70;1.00;13.60;94449.00;;;;7422505;19;20161;-82
2022/05/28 07:49:11;;;;;;;4.28;1.75;;;13.00;1.00;13.40;94448.00;;;;7418156;19;20137;-81
2022/05/28 07:51:38;;;;;;;3.17;1.30;;;13.00;1.00;12.90;94460.00;;;;7414250;19;20140;-81
2022/05/28 07:54:07;;;;;;;6.00;1.25;;;13.10;1.00;12.50;94460.00;;;;7410859;19;20157;-79
2022/05/28 07:56:40;;;;;;;4.05;1.50;;;12.80;1.00;13.40;94454.00;;;;7421119;19;20113;-79
2022/05/28 07:59:07;;;;;;;5.93;1.60;;;13.00;1.00;13.90;94446.00;;;;7418019;19;20144;-82
2022/05/28 08:01:39;;;;;;;7.10;1.60;;;13.30;1.00;14.10;94452.00;;;;7415283;19;20137;-81
2022/05/28 08:04:13;;;;;;;4.50;1.63;;;13.60;1.00;14.00;94445.00;;;;7410595;19;20734;-80
2022/05/28 08:06:41;;;;;;;6.30;1.65;;;13.80;1.00;14.30;94434.00;;;;7407657;19;20576;-80
2022/05/28 08:09:11;;;;;;;5.70;1.85;;;13.90;1.00;14.40;94446.00;;;;7400773;19;20150;-81
2022/05/28 08:11:52;;;;;;;4.95;1.85;;;14.10;1.00;15.00;94455.00;;;;7394841;19;20172;-82
2022/05/28 08:14:19;;;;;;;3.60;1.40;;;14.30;1.00;14.60;94459.00;;;;7392003;19;20145;-80
2022/05/28 08:16:52;;;;;;;3.25;1.50;;;14.30;1.00;14.30;94435.00;;;;7401266;19;20164;-80
2022/05/28 08:19:19;;;;;;;3.38;1.50;;;14.20;1.00;13.70;94458.00;;;;7408407;19;20139;-80
2022/05/28 08:24:38;;;;;;;7.88;1.75;;;13.70;1.00;14.20;94450.00;;;;7397993;19;20547;-82
2022/05/28 08:27:05;;;;;;;5.18;1.50;;;13.90;1.00;14.40;94466.00;;;;7399197;19;20144;-80
2022/05/28 08:29:35;;;;;;;3.70;1.50;;;14.10;1.00;14.30;94462.00;;;;7395613;19;20157;-81
2022/05/28 08:32:08;;;;;;;6.60;1.67;;;13.80;1.00;13.20;94435.00;;;;7403194;19;20146;-80
2022/05/28 08:34:35;;;;;;;7.25;1.55;;;13.30;1.00;13.90;94458.00;;;;7403851;19;20140;-80
2022/05/28 08:37:02;;;;;;;6.18;1.60;;;13.20;1.00;14.40;94421.00;;;;7403415;19;20141;-80
2022/05/28 08:39:37;;;;;;;6.22;1.55;;;13.50;1.00;14.50;94436.00;;;;7400137;19;20495;-80
2022/05/28 08:42:06;;;;;;;3.72;1.50;;;13.80;1.00;14.80;94429.00;;;;7399580;19;20122;-80
2022/05/28 08:44:39;;;;;;;3.67;1.45;;;14.10;1.00;15.10;94415.00;;;;7398041;19;20192;-80
2022/05/28 08:47:33;;;;;;;4.15;1.30;;;14.50;1.00;15.90;94434.00;;;;7398250;19;20133;-79
2022/05/28 08:50:01;;;;;;;5.88;1.58;;;15.00;1.00;16.10;94436.00;;;;7396865;19;20652;-77
2022/05/28 08:52:52;;;;;;;2.95;1.23;;;15.20;1.00;16.40;94414.00;;;;7396247;19;20145;-79
2022/05/28 08:55:24;;;;;;;6.03;1.88;;;15.60;1.00;16.70;94422.00;;;;7396378;19;20145;-79
2022/05/28 08:58:07;;;;;;;3.22;1.63;;;15.90;1.00;17.00;94416.00;;;;7396140;19;20161;-81
2022/05/28 09:01:06;;;;;;;6.40;1.65;;;16.10;1.00;17.40;94424.00;;;;7396493;19;20135;-80
2022/05/28 09:04:04;;;;;;;5.43;1.23;;;16.60;1.00;17.70;94451.00;;;;7395398;19;20232;-80
2022/05/28 09:06:45;;;;;;;4.43;1.35;;;17.10;1.00;17.10;94426.00;;;;7393583;19;20133;-80
2022/05/28 09:09:18;;;;;;;3.90;1.52;;;17.00;99.90;16.80;94433.00;;;;7397052;19;20485;-79
2022/05/28 09:12:07;;;;;;;5.25;1.60;;;17.00;99.90;14.90;94446.00;;;;7395662;19;20152;-82
2022/05/28 09:14:48;;;;;;;3.42;1.25;;;16.30;99.90;15.70;94399.00;;;;7396272;19;20141;-79
2022/05/28 09:17:50;;;;;;;3.47;1.60;;;16.00;99.90;16.40;94382.00;;;;7395800;19;20607;-81
2022/05/28 09:20:35;;;;;;;6.90;1.48;;;16.10;99.90;16.70;94416.00;;;;7395983;19;20141;-82
2022/05/28 09:23:02;;;;;;;3.47;1.50;;;16.60;99.90;17.30;94393.00;;;;7396368;19;20132;-80
2022/05/28 09:25:43;;;;;;;4.22;1.65;;;16.90;99.90;17.10;94439.00;;;;7395155;19;20161;-79
2022/05/28 09:28:27;;;;;;;5.45;1.40;;;17.00;99.90;16.40;94443.00;;;;7397694;19;20129;-80
2022/05/28 09:31:32;;;;;;;5.65;1.58;;;16.40;99.90;15.20;94451.00;;;;7394924;19;20121;-79
2022/05/28 09:34:20;;;;;;;3.08;1.30;;;15.90;99.90;15.20;94432.00;;;;7394461;19;20149;-79
2022/05/28 09:37:27;;;;;;;3.17;1.05;;;15.60;99.90;16.00;94426.00;;;;7396222;19;20592;-79
2022/05/28 09:40:24;;;;;;;5.60;1.70;;;15.80;99.90;15.50;94447.00;;;;7394274;19;20631;-80
2022/05/28 09:43:22;;;;;;;6.57;1.40;;;16.20;99.90;15.40;94436.00;;;;7392268;19;20132;-79
2022/05/28 09:46:10;;;;;;;6.45;1.35;;;16.00;99.90;14.90;94433.00;;;;7393220;19;20141;-81
2022/05/28 09:48:47;;;;;;;3.65;1.38;;;15.40;99.90;15.30;94421.00;;;;7396065;19;20128;-79
2022/05/28 09:51:23;;;;;;;6.07;1.80;;;15.40;99.90;16.30;94422.00;;;;7393849;19;20137;-77
2022/05/28 09:54:17;;;;;;;5.32;1.75;;;15.90;99.90;16.40;94400.00;;;;7394074;19;20618;-80
2022/05/28 09:56:56;;;;;;;7.38;1.48;;;16.20;99.90;16.20;94432.00;;;;7394529;19;20154;-80
2022/05/28 09:59:46;;;;;;;3.63;1.30;;;16.20;99.90;14.60;94433.00;;;;7396180;19;20125;-78
2022/05/28 10:02:25;;;;;;;4.80;1.50;;;15.80;99.90;14.80;94424.00;;;;7394676;19;20148;-78
2022/05/28 10:05:17;;;;;;;2.88;1.13;;;15.50;99.90;16.00;94370.00;;;;7394276;19;20212;-79
2022/05/28 10:07:51;;;;;;;4.55;1.67;;;15.70;99.90;16.40;94387.00;;;;7394400;19;20154;-78
2022/05/28 10:10:35;;;;;;;3.42;1.50;;;16.10;99.90;17.00;94378.00;;;;7395334;19;20583;-79
2022/05/28 10:13:24;;;;;;;5.45;1.48;;;16.40;99.90;17.30;94386.00;;;;7395370;19;20541;-81
2022/05/28 10:16:05;;;;;;;6.95;1.40;;;16.60;99.90;16.30;94409.00;;;;7391115;19;20179;-80
2022/05/28 10:18:41;;;;;;;7.78;1.40;;;16.40;99.90;15.70;94378.00;;;;7389947;19;20160;-81
2022/05/28 10:21:21;;;;;;;4.43;1.30;;;16.20;99.90;16.40;94408.00;;;;7385919;19;20861;-79
2022/05/28 10:23:57;;;;;;;3.28;1.33;;;16.40;99.90;16.00;94381.00;;;;7391083;19;20628;-78
2022/05/28 10:26:44;;;;;;;3.55;1.40;;;16.50;99.90;16.50;94407.00;;;;7388538;19;20157;-80
2022/05/28 10:29:29;;;;;;;3.88;1.30;;;16.60;99.90;17.20;94389.00;;;;7388877;19;20163;-79
2022/05/28 10:32:23;;;;;;;4.28;1.40;;;16.80;99.90;17.30;94374.00;;;;7391254;19;20615;-79
2022/05/28 10:35:28;;;;;;;5.35;1.48;;;17.20;99.90;17.00;94368.00;;;;7390489;19;20167;-80
2022/05/28 10:38:14;;;;;;;4.53;1.52;;;17.00;99.90;16.50;94392.00;;;;7387922;19;20148;-80
2022/05/28 10:40:59;;;;;;;4.88;1.50;;;16.90;99.90;16.80;94389.00;;;;7392095;19;20156;-83
2022/05/28 10:43:38;;;;;;;6.43;1.65;;;16.80;99.90;16.90;94375.00;;;;7391565;19;20610;-79
2022/05/28 10:46:25;;;;;;;4.28;1.60;;;16.80;99.90;17.00;94402.00;;;;7387087;19;20591;-81
2022/05/28 10:49:42;;;;;;;3.22;1.45;;;16.90;99.90;16.60;94392.00;;;;7392714;19;20611;-79
2022/05/28 10:52:50;;;;;;;6.25;1.70;;;16.90;99.90;17.50;94384.00;;;;7388295;19;20133;-80
2022/05/28 10:55:54;;;;;;;3.65;1.45;;;17.40;99.90;18.00;94369.00;;;;7389153;19;20132;-79
2022/05/28 10:58:53;;;;;;;4.68;1.63;;;18.20;99.90;18.10;94373.00;;;;7389265;19;20166;-81
2022/05/28 11:01:44;;;;;;;2.88;1.33;;;18.60;99.90;18.30;94372.00;;;;7393231;19;20129;-78
2022/05/28 11:04:59;;;;;;;3.03;1.10;;;18.90;99.90;19.00;94383.00;;;;7391294;19;20611;-79
2022/05/28 11:08:07;;;;;;;5.30;1.88;;;19.20;99.90;18.60;94369.00;;;;7395958;19;20148;-78
2022/05/28 11:11:08;;;;;;;6.35;1.92;;;19.00;99.90;18.00;94382.00;;;;7392733;19;20232;-79
2022/05/28 11:14:17;;;;;;;4.93;1.70;;;18.50;99.90;16.90;94385.00;;;;7389319;19;20160;-79
2022/05/28 11:16:58;;;;;;;3.97;1.33;;;18.30;99.90;17.30;94380.00;;;;7390913;19;20140;-79
2022/05/28 11:20:15;;;;;;;5.95;1.60;;;17.90;99.90;18.40;94369.00;;;;7392746;19;20129;-77
2022/05/28 11:23:24;;;;;;;3.28;1.42;;;18.20;99.90;19.20;94363.00;;;;7391036;19;20603;-80
2022/05/28 11:26:27;;;;;;;6.50;1.50;;;18.80;99.90;19.50;94351.00;;;;7391167;19;20139;-80
2022/05/28 11:29:26;;;;;;;2.85;1.55;;;19.20;99.90;19.90;94352.00;;;;7390252;19;20475;-79
2022/05/28 11:32:15;;;;;;;4.88;1.60;;;19.40;99.90;18.10;94325.00;;;;7391557;19;20506;-80
2022/05/28 11:35:01;;;;;;;4.78;1.60;;;19.60;99.90;19.30;94355.00;;;;7392298;19;20120;-79
2022/05/28 11:38:08;;;;;;;4.10;1.67;;;19.50;99.90;18.30;94363.00;;;;7390702;19;20125;-79
2022/05/28 11:41:12;;;;;;;2.90;1.63;;;19.40;99.90;17.40;94336.00;;;;7390874;19;20140;-79
2022/05/28 11:44:06;;;;;;;5.22;1.40;;;18.80;99.90;18.90;94328.00;;;;7393216;19;20438;-79
2022/05/28 11:46:54;;;;;;;2.65;1.40;;;18.90;99.90;20.20;94329.00;;;;7389743;19;20206;-79
2022/05/28 11:52:48;;;;;;;5.00;1.80;;;19.30;99.90;19.30;94304.00;;;;7393292;19;20591;-79